createdAt,value
2022-11-27T00:01:26.105Z,15.00
2022-11-27T00:03:54.761Z,14.45
2022-11-27T00:06:23.833Z,13.13
2022-11-27T00:08:51.114Z,12.68
2022-11-27T00:11:20.733Z,11.23
2022-11-27T00:13:47.561Z,11.18
2022-11-27T00:16:15.039Z,11.30
2022-11-27T00:18:42.891Z,10.85
2022-11-27T00:21:14.756Z,11.30
2022-11-27T00:23:42.104Z,11.13
2022-11-27T00:26:09.824Z,11.75
2022-11-27T00:28:36.898Z,11.63
2022-11-27T00:31:08.520Z,12.32
2022-11-27T00:33:35.221Z,12.02
2022-11-27T00:36:05.831Z,12.07
2022-11-27T00:38:38.462Z,11.48
2022-11-27T00:41:10.871Z,10.57
2022-11-27T00:43:44.108Z,10.95
2022-11-27T00:46:16.091Z,11.05
2022-11-27T00:48:43.424Z,10.63
2022-11-27T00:51:13.792Z,10.77
2022-11-27T00:53:40.815Z,11.73
2022-11-27T00:56:08.134Z,12.02
2022-11-27T00:58:35.755Z,11.40
2022-11-27T01:01:06.842Z,12.10
2022-11-27T01:03:35.884Z,11.52
2022-11-27T01:06:04.580Z,11.60
2022-11-27T01:08:31.746Z,10.90
2022-11-27T01:10:59.215Z,10.60
2022-11-27T01:13:28.521Z,11.05
2022-11-27T01:16:10.672Z,11.43
2022-11-27T01:18:39.660Z,11.07
2022-11-27T01:21:07.181Z,11.00
2022-11-27T01:23:34.390Z,10.25
2022-11-27T01:26:06.839Z,11.82
2022-11-27T01:28:34.270Z,11.48
2022-11-27T01:31:18.308Z,11.23
2022-11-27T01:33:46.480Z,10.98
2022-11-27T01:36:14.918Z,10.73
2022-11-27T01:38:42.028Z,10.90
2022-11-27T01:41:15.134Z,10.90
2022-11-27T01:43:43.835Z,10.88
2022-11-27T01:46:49.835Z,11.38
2022-11-27T01:49:42.140Z,10.18
2022-11-27T01:52:31.535Z,9.63
2022-11-27T01:55:02.001Z,10.02
2022-11-27T01:57:43.530Z,9.98
2022-11-27T02:02:46.554Z,12.27
2022-11-27T02:05:21.985Z,11.93
2022-11-27T02:07:52.485Z,12.32
2022-11-27T02:10:21.368Z,11.07
2022-11-27T02:13:10.190Z,11.48
2022-11-27T02:16:08.595Z,11.63
2022-11-27T02:18:48.075Z,11.02
2022-11-27T02:21:52.966Z,11.05
2022-11-27T02:24:49.820Z,10.57
2022-11-27T02:28:06.711Z,10.30
2022-11-27T02:30:39.909Z,10.43
2022-11-27T02:33:14.626Z,11.20
2022-11-27T02:35:50.469Z,11.23
2022-11-27T02:38:27.541Z,10.73
2022-11-27T02:41:30.022Z,10.50
2022-11-27T02:44:00.808Z,10.93
2022-11-27T02:46:30.421Z,10.50
2022-11-27T02:49:05.223Z,10.20
2022-11-27T02:51:46.584Z,9.70
2022-11-27T02:54:20.914Z,10.02
2022-11-27T02:56:52.925Z,9.60
2022-11-27T02:59:24.585Z,10.10
2022-11-27T03:01:59.635Z,9.52
2022-11-27T03:04:35.997Z,9.77
2022-11-27T03:07:11.057Z,9.25
2022-11-27T03:09:48.130Z,10.75
2022-11-27T03:12:17.242Z,10.63
2022-11-27T03:14:46.648Z,10.40
2022-11-27T03:17:38.038Z,10.43
2022-11-27T03:20:15.444Z,9.88
2022-11-27T03:22:43.030Z,10.00
2022-11-27T03:25:11.218Z,9.80
2022-11-27T03:27:48.341Z,9.25
2022-11-27T03:30:15.601Z,9.32
2022-11-27T03:32:43.443Z,9.30
2022-11-27T03:35:13.017Z,8.88
2022-11-27T03:37:41.817Z,9.57
2022-11-27T03:40:11.440Z,9.70
2022-11-27T03:43:11.087Z,10.02
2022-11-27T03:45:58.164Z,10.80
2022-11-27T03:48:50.986Z,9.32
2022-11-27T03:52:04.540Z,9.25
2022-11-27T03:55:04.757Z,9.10
2022-11-27T03:58:17.132Z,9.48
2022-11-27T04:00:47.160Z,9.15
2022-11-27T04:03:14.430Z,9.32
2022-11-27T04:05:42.339Z,9.13
2022-11-27T04:08:10.688Z,9.57
2022-11-27T04:10:39.040Z,9.55
2022-11-27T04:13:07.743Z,9.63
2022-11-27T04:15:35.447Z,9.50
2022-11-27T04:18:03.935Z,9.52
2022-11-27T04:20:31.256Z,9.55
2022-11-27T04:22:58.329Z,9.70
2022-11-27T04:25:28.103Z,10.60
2022-11-27T04:27:56.243Z,10.43
2022-11-27T04:30:23.337Z,9.93
2022-11-27T04:32:50.668Z,10.68
2022-11-27T04:35:18.228Z,11.30
2022-11-27T04:37:45.856Z,13.05
2022-11-27T04:40:15.995Z,13.30
2022-11-27T04:42:45.349Z,14.10
2022-11-27T04:45:14.000Z,12.07
2022-11-27T04:47:43.243Z,13.13
2022-11-27T04:50:13.901Z,13.70
2022-11-27T04:52:42.353Z,13.63
2022-11-27T04:55:10.636Z,13.68
2022-11-27T04:57:38.484Z,13.93
2022-11-27T05:00:09.641Z,14.50
2022-11-27T05:02:36.561Z,13.32
2022-11-27T05:05:07.346Z,14.43
2022-11-27T05:07:37.984Z,14.02
2022-11-27T05:10:08.029Z,13.85
2022-11-27T05:12:37.639Z,13.48
2022-11-27T05:15:09.862Z,12.75
2022-11-27T05:17:41.351Z,12.77
2022-11-27T05:20:09.773Z,12.90
2022-11-27T05:22:40.563Z,14.05
2022-11-27T05:25:11.684Z,12.80
2022-11-27T05:27:42.135Z,12.52
2022-11-27T05:30:12.627Z,11.30
2022-11-27T05:32:43.777Z,12.07
2022-11-27T05:35:13.163Z,12.18
2022-11-27T05:37:41.462Z,11.02
2022-11-27T05:40:10.963Z,12.73
2022-11-27T05:42:40.197Z,13.38
2022-11-27T05:45:09.370Z,12.20
2022-11-27T05:47:36.628Z,13.07
2022-11-27T05:50:04.364Z,13.35
2022-11-27T05:52:33.189Z,15.93
2022-11-27T05:55:01.697Z,14.45
2022-11-27T05:57:33.449Z,25.55
2022-11-27T06:00:06.553Z,29.90
2022-11-27T06:02:38.053Z,14.57
2022-11-27T06:05:07.034Z,13.55
2022-11-27T06:07:38.704Z,11.18
2022-11-27T06:10:11.821Z,11.45
2022-11-27T06:12:41.748Z,11.85
2022-11-27T06:15:09.708Z,10.57
2022-11-27T06:17:42.674Z,9.13
2022-11-27T06:20:11.626Z,9.32
2022-11-27T06:22:42.704Z,8.60
2022-11-27T06:25:15.828Z,7.85
2022-11-27T06:27:43.340Z,8.27
2022-11-27T06:30:14.926Z,6.97
2022-11-27T06:32:44.145Z,8.43
2022-11-27T06:35:11.032Z,7.28
2022-11-27T06:37:41.884Z,6.88
2022-11-27T06:40:11.249Z,6.97
2022-11-27T06:42:42.116Z,6.75
2022-11-27T06:45:11.141Z,7.30
2022-11-27T06:47:38.936Z,7.38
2022-11-27T06:50:08.186Z,7.43
2022-11-27T06:52:40.369Z,6.82
2022-11-27T06:55:08.966Z,6.82
2022-11-27T06:57:37.130Z,6.82
2022-11-27T07:00:05.726Z,6.93
2022-11-27T07:02:33.274Z,8.07
2022-11-27T07:05:01.065Z,8.23
2022-11-27T07:07:28.732Z,7.97
2022-11-27T07:09:56.879Z,7.60
2022-11-27T07:12:24.397Z,7.55
2022-11-27T07:14:52.034Z,7.78
2022-11-27T07:17:22.935Z,7.97
2022-11-27T07:19:52.682Z,7.90
2022-11-27T07:22:23.274Z,7.13
2022-11-27T07:24:54.680Z,7.70
2022-11-27T07:27:25.075Z,8.23
2022-11-27T07:29:54.020Z,8.55
2022-11-27T07:32:24.795Z,8.18
2022-11-27T07:34:54.443Z,8.80
2022-11-27T07:37:25.416Z,9.40
2022-11-27T07:40:02.539Z,11.40
2022-11-27T07:42:39.635Z,9.93
2022-11-27T07:45:10.446Z,9.23
2022-11-27T07:47:39.811Z,9.38
2022-11-27T07:50:10.366Z,9.07
2022-11-27T07:52:42.174Z,8.45
2022-11-27T07:55:12.288Z,8.93
2022-11-27T07:57:41.627Z,7.88
2022-11-27T08:00:12.421Z,9.02
2022-11-27T08:02:43.486Z,8.68
2022-11-27T08:05:13.982Z,9.32
2022-11-27T08:07:43.420Z,11.27
2022-11-27T08:10:11.796Z,9.57
2022-11-27T08:12:40.710Z,7.85
2022-11-27T08:15:08.462Z,8.07
2022-11-27T08:17:36.145Z,7.82
2022-11-27T08:20:03.653Z,8.05
2022-11-27T08:22:32.378Z,8.63
2022-11-27T08:24:59.507Z,8.95
2022-11-27T08:27:27.778Z,10.13
2022-11-27T08:29:54.990Z,11.52
2022-11-27T08:32:22.294Z,13.60
2022-11-27T08:34:49.995Z,13.50
2022-11-27T08:37:17.507Z,14.27
2022-11-27T08:39:45.652Z,15.98
2022-11-27T08:42:12.802Z,16.67
2022-11-27T08:44:39.866Z,17.33
2022-11-27T08:47:07.515Z,18.92
2022-11-27T08:49:35.650Z,19.00
2022-11-27T08:52:04.022Z,21.27
2022-11-27T08:54:32.402Z,21.60
2022-11-27T08:56:59.229Z,20.13
2022-11-27T08:59:26.707Z,19.52
2022-11-27T09:01:55.817Z,17.30
2022-11-27T09:04:23.983Z,15.52
2022-11-27T09:06:56.778Z,16.02
2022-11-27T09:09:27.788Z,15.35
2022-11-27T09:11:56.523Z,15.43
2022-11-27T09:14:23.508Z,15.48
2022-11-27T09:16:51.637Z,14.15
2022-11-27T09:19:18.757Z,14.45
2022-11-27T09:21:45.916Z,14.07
2022-11-27T09:24:13.462Z,14.40
2022-11-27T09:26:41.198Z,14.60
2022-11-27T09:29:08.079Z,15.65
2022-11-27T09:31:35.147Z,16.30
2022-11-27T09:34:05.068Z,12.95
2022-11-27T09:36:33.879Z,17.27
2022-11-27T09:39:01.316Z,15.90
2022-11-27T09:41:47.149Z,11.35
2022-11-27T09:44:43.407Z,14.40
2022-11-27T09:47:24.850Z,17.80
2022-11-27T09:50:15.789Z,13.43
2022-11-27T09:52:55.484Z,12.70
2022-11-27T09:55:34.697Z,12.68
2022-11-27T09:58:07.505Z,13.23
2022-11-27T10:00:34.800Z,12.55
2022-11-27T10:03:01.933Z,12.88
2022-11-27T10:05:48.713Z,12.70
2022-11-27T10:08:44.966Z,12.93
2022-11-27T10:11:37.124Z,12.38
2022-11-27T10:15:04.136Z,13.32
2022-11-27T10:20:51.710Z,15.15
2022-11-27T10:23:36.789Z,14.18
2022-11-27T10:26:15.058Z,13.23
2022-11-27T10:28:42.884Z,12.18
2022-11-27T10:31:36.146Z,12.48
2022-11-27T10:34:06.056Z,13.25
2022-11-27T10:36:44.920Z,11.60
2022-11-27T10:39:43.320Z,10.88
2022-11-27T10:42:27.194Z,11.23
2022-11-27T10:45:03.576Z,10.73
2022-11-27T10:47:33.718Z,10.18
2022-11-27T10:50:02.199Z,9.82
2022-11-27T10:52:29.833Z,9.93
2022-11-27T10:55:03.466Z,8.90
2022-11-27T10:58:19.144Z,9.30
2022-11-27T11:00:48.052Z,8.90
2022-11-27T11:03:18.420Z,9.18
2022-11-27T11:06:19.508Z,9.63
2022-11-27T11:08:44.684Z,10.35
2022-11-27T11:11:12.736Z,11.13
2022-11-27T11:13:47.298Z,11.25
2022-11-27T11:16:24.007Z,12.50
2022-11-27T11:18:54.622Z,9.73
2022-11-27T11:21:39.699Z,8.70
2022-11-27T11:24:19.780Z,8.88
2022-11-27T11:26:50.260Z,7.90
2022-11-27T11:29:44.167Z,9.30
2022-11-27T11:32:18.303Z,9.57
2022-11-27T11:37:47.328Z,8.50
2022-11-27T11:40:24.506Z,8.93
2022-11-27T11:42:54.475Z,8.70
2022-11-27T11:45:22.697Z,9.68
2022-11-27T11:47:56.045Z,9.10
2022-11-27T11:50:37.482Z,8.70
2022-11-27T11:53:37.671Z,12.55
2022-11-27T11:56:34.947Z,11.27
2022-11-27T11:59:09.767Z,8.07
2022-11-27T12:01:56.899Z,8.48
2022-11-27T12:04:44.420Z,8.38
2022-11-27T12:07:51.985Z,7.03
2022-11-27T12:10:49.649Z,7.18
2022-11-27T12:13:41.802Z,7.13
2022-11-27T12:16:44.200Z,6.72
2022-11-27T12:19:33.159Z,7.07
2022-11-27T12:22:30.124Z,6.97
2022-11-27T12:25:29.714Z,6.78
2022-11-27T12:28:38.793Z,6.60
2022-11-27T12:31:31.838Z,6.50
2022-11-27T12:34:06.671Z,5.93
2022-11-27T12:37:16.230Z,7.00
2022-11-27T12:40:23.517Z,6.53
2022-11-27T12:43:17.232Z,7.18
2022-11-27T12:45:49.254Z,9.45
2022-11-27T12:48:31.538Z,6.15
2022-11-27T12:51:12.411Z,6.70
2022-11-27T12:53:49.937Z,6.63
2022-11-27T12:56:25.964Z,8.02
2022-11-27T12:59:21.365Z,7.80
2022-11-27T13:01:54.547Z,6.68
2022-11-27T13:04:35.489Z,6.50
2022-11-27T13:07:19.089Z,6.18
2022-11-27T13:10:11.775Z,6.47
2022-11-27T13:13:15.195Z,6.70
2022-11-27T13:16:09.789Z,7.40
2022-11-27T13:18:42.175Z,6.50
2022-11-27T13:21:13.670Z,6.60
2022-11-27T13:23:40.647Z,7.28
2022-11-27T13:26:26.792Z,8.70
2022-11-27T13:28:58.489Z,6.75
2022-11-27T13:31:36.797Z,6.65
2022-11-27T13:34:15.514Z,6.72
2022-11-27T13:36:45.226Z,6.65
2022-11-27T13:39:36.436Z,7.05
2022-11-27T13:42:19.005Z,6.75
2022-11-27T13:44:57.635Z,7.07
2022-11-27T13:47:27.554Z,6.40
2022-11-27T13:50:10.549Z,6.80
2022-11-27T13:52:38.236Z,6.15
2022-11-27T13:55:10.040Z,12.52
2022-11-27T13:57:39.201Z,16.05
2022-11-27T14:00:11.322Z,9.07
2022-11-27T14:02:52.697Z,8.73
2022-11-27T14:05:22.359Z,8.27
2022-11-27T14:07:53.360Z,6.50
2022-11-27T14:10:24.956Z,6.18
2022-11-27T14:12:59.220Z,6.30
2022-11-27T14:15:30.460Z,5.80
2022-11-27T14:18:21.650Z,6.60
2022-11-27T14:20:52.139Z,9.45
2022-11-27T14:23:35.876Z,8.52
2022-11-27T14:26:10.583Z,9.50
2022-11-27T14:28:41.933Z,47.83
2022-11-27T14:31:32.117Z,91.30
2022-11-27T14:34:24.340Z,19.50
2022-11-27T14:36:56.878Z,14.15
2022-11-27T14:39:38.930Z,6.43
2022-11-27T14:42:10.844Z,6.07
2022-11-27T14:44:43.622Z,5.97
2022-11-27T14:47:19.288Z,5.88
2022-11-27T14:49:47.408Z,6.05
2022-11-27T14:52:15.952Z,5.88
2022-11-27T14:54:47.593Z,6.35
2022-11-27T14:57:20.781Z,6.70
2022-11-27T14:59:47.757Z,5.88
2022-11-27T15:02:22.335Z,6.10
2022-11-27T15:05:05.188Z,6.30
2022-11-27T15:07:43.956Z,6.72
2022-11-27T15:10:34.120Z,9.15
2022-11-27T15:13:05.960Z,7.03
2022-11-27T15:15:42.551Z,7.07
2022-11-27T15:18:20.017Z,6.53
2022-11-27T15:20:55.216Z,6.40
2022-11-27T19:36:37.502Z,8.63
2022-11-27T19:39:12.497Z,9.05
2022-11-27T19:41:40.187Z,9.90
2022-11-27T19:44:07.877Z,9.75
2022-11-27T19:46:37.159Z,9.30
2022-11-27T19:49:13.265Z,9.25
2022-11-27T19:51:40.827Z,8.43
2022-11-27T19:54:10.483Z,8.50
2022-11-27T19:56:40.309Z,8.38
2022-11-27T19:59:08.018Z,7.97
2022-11-27T20:01:34.902Z,8.63
2022-11-27T20:04:04.519Z,8.05
2022-11-27T20:06:32.695Z,8.40
2022-11-27T20:09:03.232Z,8.50
2022-11-27T20:11:34.870Z,8.57
2022-11-27T20:14:04.408Z,10.00
2022-11-27T20:16:31.869Z,11.00
2022-11-27T20:18:59.581Z,9.43
2022-11-27T20:21:26.973Z,20.77
2022-11-27T20:23:54.841Z,13.07
2022-11-27T20:26:24.299Z,11.23
2022-11-27T20:28:52.552Z,9.95
2022-11-27T20:31:31.512Z,8.77
2022-11-27T20:34:00.992Z,8.75
2022-11-27T20:36:29.058Z,8.77
2022-11-27T20:38:56.263Z,12.75
2022-11-27T20:41:23.810Z,11.65
2022-11-27T20:43:55.702Z,11.88
2022-11-27T20:46:22.696Z,8.18
2022-11-27T20:48:51.522Z,8.00
2022-11-27T20:51:22.075Z,8.18
2022-11-27T20:53:49.925Z,12.95
2022-11-27T20:56:19.247Z,9.10
2022-11-27T20:58:46.997Z,8.55
2022-11-27T21:01:23.062Z,8.32
2022-11-27T21:03:51.655Z,7.82
2022-11-27T21:06:21.058Z,7.28
2022-11-27T21:08:47.874Z,8.35
2022-11-27T21:11:17.486Z,7.35
2022-11-27T21:13:45.389Z,7.65
2022-11-27T21:16:13.627Z,7.78
2022-11-27T21:18:41.048Z,7.38
2022-11-27T21:21:13.693Z,8.52
2022-11-27T21:23:41.739Z,6.90
2022-11-27T21:26:09.951Z,7.82
2022-11-27T21:28:36.941Z,7.72
2022-11-27T21:31:07.998Z,7.88
2022-11-27T21:33:35.939Z,8.23
2022-11-27T21:36:04.396Z,7.95
2022-11-27T21:38:31.494Z,7.40
2022-11-27T21:40:58.370Z,7.63
2022-11-27T21:43:25.342Z,8.02
2022-11-27T21:45:52.855Z,8.30
2022-11-27T21:48:20.971Z,7.82
2022-11-27T21:50:47.976Z,7.75
2022-11-27T21:53:14.902Z,7.57
2022-11-27T21:55:42.806Z,8.85
2022-11-27T21:58:10.865Z,7.20
2022-11-27T22:00:37.957Z,8.13
2022-11-27T22:03:05.494Z,7.13
2022-11-27T22:05:32.618Z,7.93
2022-11-27T22:07:59.686Z,7.45
2022-11-27T22:10:26.848Z,7.57
2022-11-27T22:12:56.985Z,7.70
2022-11-27T22:15:24.150Z,7.50
2022-11-27T22:17:51.018Z,7.85
2022-11-27T22:20:18.063Z,7.70
2022-11-27T22:22:45.299Z,7.72
2022-11-27T22:25:12.475Z,8.18
2022-11-27T22:27:39.291Z,8.43
2022-11-27T22:30:07.319Z,8.15
2022-11-27T22:32:34.174Z,7.78
2022-11-27T22:35:01.425Z,7.60
2022-11-27T22:37:28.864Z,7.82
2022-11-27T22:39:55.697Z,7.57
2022-11-27T22:42:22.642Z,7.75
2022-11-27T22:44:49.788Z,7.55
2022-11-27T22:47:16.889Z,7.75
2022-11-27T22:49:43.769Z,7.88
2022-11-27T22:52:10.987Z,8.07
2022-11-27T22:54:38.172Z,7.20
2022-11-27T22:57:05.239Z,8.40
2022-11-27T22:59:34.106Z,7.80
2022-11-27T23:02:02.813Z,7.97
2022-11-27T23:04:29.861Z,8.40
2022-11-27T23:06:56.804Z,8.02
2022-11-27T23:09:25.162Z,8.40
2022-11-27T23:11:53.094Z,9.00
2022-11-27T23:14:20.476Z,9.43
2022-11-27T23:16:47.903Z,8.48
2022-11-27T23:19:14.967Z,8.70
2022-11-27T23:21:42.789Z,8.23
2022-11-27T23:24:12.352Z,9.02
2022-11-27T23:26:39.753Z,8.70
2022-11-27T23:29:07.191Z,9.05
2022-11-27T23:31:37.708Z,8.90
2022-11-27T23:34:09.491Z,9.35
2022-11-27T23:36:36.748Z,9.45
2022-11-27T23:39:07.912Z,8.77
2022-11-27T23:41:35.346Z,7.97
2022-11-27T23:44:03.369Z,9.10
2022-11-27T23:46:31.304Z,8.70
2022-11-27T23:48:59.968Z,8.63
2022-11-27T23:51:31.822Z,8.88
2022-11-27T23:53:59.971Z,8.82
2022-11-27T23:56:29.684Z,9.70
2022-11-27T23:58:57.110Z,9.13
